sensor_id;sensor_type;location;lat;lon;timestamp;P1;durP1;ratioP1;P2;durP2;ratioP2
18776;SDS011;9517;51.174;4.160;2022-08-19T00:01:28;49.63;;;33.97;;
18776;SDS011;9517;51.174;4.160;2022-08-19T00:03:56;50.83;;;35.90;;
18776;SDS011;9517;51.174;4.160;2022-08-19T00:06:24;52.13;;;34.93;;
18776;SDS011;9517;51.174;4.160;2022-08-19T00:08:52;49.97;;;35.40;;
18776;SDS011;9517;51.174;4.160;2022-08-19T00:11:20;48.87;;;33.13;;
18776;SDS011;9517;51.174;4.160;2022-08-19T00:13:50;58.23;;;38.77;;
18776;SDS011;9517;51.174;4.160;2022-08-19T00:16:17;60.63;;;40.17;;
18776;SDS011;9517;51.174;4.160;2022-08-19T00:18:44;68.77;;;44.03;;
18776;SDS011;9517;51.174;4.160;2022-08-19T00:21:11;69.07;;;44.77;;
18776;SDS011;9517;51.174;4.160;2022-08-19T00:23:39;69.40;;;44.10;;
18776;SDS011;9517;51.174;4.160;2022-08-19T00:26:08;73.87;;;46.83;;
18776;SDS011;9517;51.174;4.160;2022-08-19T00:28:36;79.00;;;48.27;;
18776;SDS011;9517;51.174;4.160;2022-08-19T00:31:05;76.23;;;47.07;;
18776;SDS011;9517;51.174;4.160;2022-08-19T00:33:34;77.67;;;48.33;;
18776;SDS011;9517;51.174;4.160;2022-08-19T00:36:02;81.90;;;48.27;;
18776;SDS011;9517;51.174;4.160;2022-08-19T00:38:31;76.87;;;47.43;;
18776;SDS011;9517;51.174;4.160;2022-08-19T00:40:59;75.23;;;47.03;;
18776;SDS011;9517;51.174;4.160;2022-08-19T00:43:27;79.10;;;48.90;;
18776;SDS011;9517;51.174;4.160;2022-08-19T00:45:54;81.10;;;51.13;;
18776;SDS011;9517;51.174;4.160;2022-08-19T00:48:21;78.07;;;47.87;;
18776;SDS011;9517;51.174;4.160;2022-08-19T00:50:56;85.90;;;51.87;;
18776;SDS011;9517;51.174;4.160;2022-08-19T00:53:26;80.27;;;50.30;;
18776;SDS011;9517;51.174;4.160;2022-08-19T00:55:58;85.23;;;50.73;;
18776;SDS011;9517;51.174;4.160;2022-08-19T00:58:30;80.93;;;49.87;;
18776;SDS011;9517;51.174;4.160;2022-08-19T01:00:59;78.43;;;48.73;;
18776;SDS011;9517;51.174;4.160;2022-08-19T01:03:28;74.00;;;46.63;;
18776;SDS011;9517;51.174;4.160;2022-08-19T01:05:56;76.60;;;45.63;;
18776;SDS011;9517;51.174;4.160;2022-08-19T01:08:23;70.83;;;43.13;;
18776;SDS011;9517;51.174;4.160;2022-08-19T01:10:52;65.33;;;40.57;;
18776;SDS011;9517;51.174;4.160;2022-08-19T01:13:25;60.13;;;38.20;;
18776;SDS011;9517;51.174;4.160;2022-08-19T01:15:57;62.80;;;38.67;;
18776;SDS011;9517;51.174;4.160;2022-08-19T01:18:29;56.97;;;34.93;;
18776;SDS011;9517;51.174;4.160;2022-08-19T01:20:58;53.60;;;35.03;;
18776;SDS011;9517;51.174;4.160;2022-08-19T01:23:29;61.73;;;36.17;;
18776;SDS011;9517;51.174;4.160;2022-08-19T01:26:09;56.00;;;35.10;;
18776;SDS011;9517;51.174;4.160;2022-08-19T01:28:38;57.40;;;36.27;;
18776;SDS011;9517;51.174;4.160;2022-08-19T01:31:07;54.40;;;36.47;;
18776;SDS011;9517;51.174;4.160;2022-08-19T01:33:37;55.63;;;36.67;;
18776;SDS011;9517;51.174;4.160;2022-08-19T01:36:05;57.77;;;35.60;;
18776;SDS011;9517;51.174;4.160;2022-08-19T01:38:36;57.00;;;35.07;;
18776;SDS011;9517;51.174;4.160;2022-08-19T01:41:05;56.93;;;35.33;;
18776;SDS011;9517;51.174;4.160;2022-08-19T01:43:32;54.43;;;36.10;;
18776;SDS011;9517;51.174;4.160;2022-08-19T01:46:00;57.13;;;36.07;;
18776;SDS011;9517;51.174;4.160;2022-08-19T01:48:32;60.83;;;37.27;;
18776;SDS011;9517;51.174;4.160;2022-08-19T01:51:00;58.40;;;37.37;;
18776;SDS011;9517;51.174;4.160;2022-08-19T01:53:27;61.60;;;37.37;;
18776;SDS011;9517;51.174;4.160;2022-08-19T01:55:58;64.07;;;38.33;;
18776;SDS011;9517;51.174;4.160;2022-08-19T01:58:27;61.03;;;37.47;;
18776;SDS011;9517;51.174;4.160;2022-08-19T02:01:01;63.63;;;37.70;;
18776;SDS011;9517;51.174;4.160;2022-08-19T02:03:28;63.90;;;37.80;;
18776;SDS011;9517;51.174;4.160;2022-08-19T02:05:56;58.77;;;37.30;;
18776;SDS011;9517;51.174;4.160;2022-08-19T02:08:27;60.93;;;36.17;;
18776;SDS011;9517;51.174;4.160;2022-08-19T02:10:57;61.97;;;38.60;;
18776;SDS011;9517;51.174;4.160;2022-08-19T02:13:25;65.70;;;37.60;;
18776;SDS011;9517;51.174;4.160;2022-08-19T02:15:52;66.03;;;37.80;;
18776;SDS011;9517;51.174;4.160;2022-08-19T02:18:20;64.87;;;38.60;;
18776;SDS011;9517;51.174;4.160;2022-08-19T02:20:47;63.10;;;36.80;;
18776;SDS011;9517;51.174;4.160;2022-08-19T02:23:15;66.87;;;40.47;;
18776;SDS011;9517;51.174;4.160;2022-08-19T02:25:43;72.20;;;40.37;;
18776;SDS011;9517;51.174;4.160;2022-08-19T02:28:14;67.63;;;38.00;;
18776;SDS011;9517;51.174;4.160;2022-08-19T02:30:41;64.00;;;40.07;;
18776;SDS011;9517;51.174;4.160;2022-08-19T02:33:09;67.43;;;38.00;;
18776;SDS011;9517;51.174;4.160;2022-08-19T02:35:36;67.97;;;38.60;;
18776;SDS011;9517;51.174;4.160;2022-08-19T02:38:03;70.77;;;37.90;;
18776;SDS011;9517;51.174;4.160;2022-08-19T02:40:48;68.50;;;38.27;;
18776;SDS011;9517;51.174;4.160;2022-08-19T02:43:18;64.00;;;37.23;;
18776;SDS011;9517;51.174;4.160;2022-08-19T02:45:46;68.63;;;39.00;;
18776;SDS011;9517;51.174;4.160;2022-08-19T02:48:14;66.03;;;38.10;;
18776;SDS011;9517;51.174;4.160;2022-08-19T02:50:44;65.03;;;37.67;;
18776;SDS011;9517;51.174;4.160;2022-08-19T02:53:11;64.93;;;37.23;;
18776;SDS011;9517;51.174;4.160;2022-08-19T02:55:42;64.90;;;36.40;;
18776;SDS011;9517;51.174;4.160;2022-08-19T02:58:10;64.37;;;38.67;;
18776;SDS011;9517;51.174;4.160;2022-08-19T03:00:42;63.87;;;38.13;;
18776;SDS011;9517;51.174;4.160;2022-08-19T03:03:11;69.30;;;38.53;;
18776;SDS011;9517;51.174;4.160;2022-08-19T03:05:38;66.70;;;37.37;;
18776;SDS011;9517;51.174;4.160;2022-08-19T03:08:06;72.47;;;37.70;;
18776;SDS011;9517;51.174;4.160;2022-08-19T03:10:39;66.60;;;36.30;;
18776;SDS011;9517;51.174;4.160;2022-08-19T03:13:14;67.67;;;36.17;;
18776;SDS011;9517;51.174;4.160;2022-08-19T03:15:44;65.60;;;35.50;;
18776;SDS011;9517;51.174;4.160;2022-08-19T03:18:13;64.90;;;34.10;;
18776;SDS011;9517;51.174;4.160;2022-08-19T03:20:42;62.87;;;33.73;;
18776;SDS011;9517;51.174;4.160;2022-08-19T03:23:10;59.10;;;32.27;;
18776;SDS011;9517;51.174;4.160;2022-08-19T03:25:39;60.13;;;32.13;;
18776;SDS011;9517;51.174;4.160;2022-08-19T03:28:08;59.17;;;32.47;;
18776;SDS011;9517;51.174;4.160;2022-08-19T03:30:37;62.60;;;31.53;;
18776;SDS011;9517;51.174;4.160;2022-08-19T03:33:07;56.43;;;31.03;;
18776;SDS011;9517;51.174;4.160;2022-08-19T03:35:36;66.57;;;33.70;;
18776;SDS011;9517;51.174;4.160;2022-08-19T03:38:03;60.03;;;32.37;;
18776;SDS011;9517;51.174;4.160;2022-08-19T03:40:31;59.73;;;32.07;;
18776;SDS011;9517;51.174;4.160;2022-08-19T03:43:02;56.80;;;30.57;;
18776;SDS011;9517;51.174;4.160;2022-08-19T03:45:30;59.40;;;31.40;;
18776;SDS011;9517;51.174;4.160;2022-08-19T03:48:00;57.97;;;30.27;;
18776;SDS011;9517;51.174;4.160;2022-08-19T03:50:28;55.83;;;30.53;;
18776;SDS011;9517;51.174;4.160;2022-08-19T03:52:55;56.83;;;31.80;;
18776;SDS011;9517;51.174;4.160;2022-08-19T03:55:23;54.80;;;29.87;;
18776;SDS011;9517;51.174;4.160;2022-08-19T03:57:50;55.27;;;28.77;;
18776;SDS011;9517;51.174;4.160;2022-08-19T04:00:17;54.73;;;29.83;;
18776;SDS011;9517;51.174;4.160;2022-08-19T04:02:47;51.17;;;28.53;;
18776;SDS011;9517;51.174;4.160;2022-08-19T04:05:15;51.37;;;28.30;;
18776;SDS011;9517;51.174;4.160;2022-08-19T04:07:45;51.67;;;28.60;;
18776;SDS011;9517;51.174;4.160;2022-08-19T04:10:12;53.20;;;29.40;;
18776;SDS011;9517;51.174;4.160;2022-08-19T04:12:39;55.60;;;28.37;;
18776;SDS011;9517;51.174;4.160;2022-08-19T04:15:07;59.03;;;28.80;;
18776;SDS011;9517;51.174;4.160;2022-08-19T04:17:34;53.23;;;27.60;;
18776;SDS011;9517;51.174;4.160;2022-08-19T04:20:01;50.37;;;27.17;;
18776;SDS011;9517;51.174;4.160;2022-08-19T04:22:29;52.67;;;26.43;;
18776;SDS011;9517;51.174;4.160;2022-08-19T04:24:57;52.47;;;26.80;;
18776;SDS011;9517;51.174;4.160;2022-08-19T04:27:24;55.90;;;26.07;;
18776;SDS011;9517;51.174;4.160;2022-08-19T04:29:55;52.37;;;28.40;;
18776;SDS011;9517;51.174;4.160;2022-08-19T04:32:22;54.23;;;26.93;;
18776;SDS011;9517;51.174;4.160;2022-08-19T04:34:49;53.97;;;27.47;;
18776;SDS011;9517;51.174;4.160;2022-08-19T04:37:16;52.63;;;26.90;;
18776;SDS011;9517;51.174;4.160;2022-08-19T04:39:43;52.07;;;25.93;;
18776;SDS011;9517;51.174;4.160;2022-08-19T04:42:29;49.53;;;25.43;;
18776;SDS011;9517;51.174;4.160;2022-08-19T04:45:05;51.53;;;25.90;;
18776;SDS011;9517;51.174;4.160;2022-08-19T04:47:35;58.60;;;25.87;;
18776;SDS011;9517;51.174;4.160;2022-08-19T04:50:03;54.90;;;27.13;;
18776;SDS011;9517;51.174;4.160;2022-08-19T04:52:31;48.33;;;24.93;;
18776;SDS011;9517;51.174;4.160;2022-08-19T04:54:58;46.27;;;25.97;;
18776;SDS011;9517;51.174;4.160;2022-08-19T04:57:26;48.20;;;24.17;;
18776;SDS011;9517;51.174;4.160;2022-08-19T04:59:55;47.50;;;25.30;;
18776;SDS011;9517;51.174;4.160;2022-08-19T05:02:25;44.93;;;24.63;;
18776;SDS011;9517;51.174;4.160;2022-08-19T05:04:56;51.17;;;25.77;;
18776;SDS011;9517;51.174;4.160;2022-08-19T05:07:26;49.53;;;25.17;;
18776;SDS011;9517;51.174;4.160;2022-08-19T05:09:53;47.43;;;24.07;;
18776;SDS011;9517;51.174;4.160;2022-08-19T05:12:20;46.53;;;24.20;;
18776;SDS011;9517;51.174;4.160;2022-08-19T05:14:47;50.87;;;23.23;;
18776;SDS011;9517;51.174;4.160;2022-08-19T05:17:16;47.07;;;23.67;;
18776;SDS011;9517;51.174;4.160;2022-08-19T05:19:43;47.07;;;22.73;;
18776;SDS011;9517;51.174;4.160;2022-08-19T05:22:28;45.53;;;21.93;;
18776;SDS011;9517;51.174;4.160;2022-08-19T05:25:01;46.00;;;22.47;;
18776;SDS011;9517;51.174;4.160;2022-08-19T05:27:30;47.67;;;22.17;;
18776;SDS011;9517;51.174;4.160;2022-08-19T05:29:58;48.50;;;22.17;;
18776;SDS011;9517;51.174;4.160;2022-08-19T05:32:28;45.27;;;22.40;;
18776;SDS011;9517;51.174;4.160;2022-08-19T05:34:55;41.73;;;20.80;;
18776;SDS011;9517;51.174;4.160;2022-08-19T05:37:22;42.53;;;20.97;;
18776;SDS011;9517;51.174;4.160;2022-08-19T05:39:51;39.53;;;19.53;;
18776;SDS011;9517;51.174;4.160;2022-08-19T05:42:19;37.23;;;19.83;;
18776;SDS011;9517;51.174;4.160;2022-08-19T05:44:48;39.77;;;18.80;;
18776;SDS011;9517;51.174;4.160;2022-08-19T05:47:16;40.83;;;19.90;;
18776;SDS011;9517;51.174;4.160;2022-08-19T05:49:46;36.87;;;19.17;;
18776;SDS011;9517;51.174;4.160;2022-08-19T05:52:14;36.47;;;18.37;;
18776;SDS011;9517;51.174;4.160;2022-08-19T05:54:42;38.33;;;19.13;;
18776;SDS011;9517;51.174;4.160;2022-08-19T05:57:12;35.50;;;17.00;;
18776;SDS011;9517;51.174;4.160;2022-08-19T05:59:40;35.20;;;16.57;;
18776;SDS011;9517;51.174;4.160;2022-08-19T06:02:07;36.43;;;17.23;;
18776;SDS011;9517;51.174;4.160;2022-08-19T06:04:34;31.10;;;16.63;;
18776;SDS011;9517;51.174;4.160;2022-08-19T06:07:03;31.10;;;16.40;;
18776;SDS011;9517;51.174;4.160;2022-08-19T06:09:30;34.07;;;16.60;;
18776;SDS011;9517;51.174;4.160;2022-08-19T06:11:58;36.67;;;17.60;;
18776;SDS011;9517;51.174;4.160;2022-08-19T06:14:27;32.33;;;16.20;;
18776;SDS011;9517;51.174;4.160;2022-08-19T06:16:57;32.63;;;16.60;;
18776;SDS011;9517;51.174;4.160;2022-08-19T06:19:27;33.20;;;16.13;;
18776;SDS011;9517;51.174;4.160;2022-08-19T06:21:56;34.00;;;16.70;;
18776;SDS011;9517;51.174;4.160;2022-08-19T06:24:27;35.57;;;17.27;;
18776;SDS011;9517;51.174;4.160;2022-08-19T06:26:55;34.83;;;16.53;;
18776;SDS011;9517;51.174;4.160;2022-08-19T06:29:24;33.20;;;16.33;;
18776;SDS011;9517;51.174;4.160;2022-08-19T06:31:55;42.77;;;17.63;;
18776;SDS011;9517;51.174;4.160;2022-08-19T06:34:23;35.30;;;16.30;;
18776;SDS011;9517;51.174;4.160;2022-08-19T06:36:52;32.20;;;16.03;;
18776;SDS011;9517;51.174;4.160;2022-08-19T06:39:21;34.93;;;15.77;;
18776;SDS011;9517;51.174;4.160;2022-08-19T06:41:53;35.60;;;16.50;;
18776;SDS011;9517;51.174;4.160;2022-08-19T06:44:22;37.17;;;17.00;;
18776;SDS011;9517;51.174;4.160;2022-08-19T06:46:51;40.00;;;19.37;;
18776;SDS011;9517;51.174;4.160;2022-08-19T06:49:19;36.00;;;16.43;;
18776;SDS011;9517;51.174;4.160;2022-08-19T06:51:46;31.80;;;16.67;;
18776;SDS011;9517;51.174;4.160;2022-08-19T06:54:15;36.63;;;17.40;;
18776;SDS011;9517;51.174;4.160;2022-08-19T06:56:43;37.20;;;17.50;;
18776;SDS011;9517;51.174;4.160;2022-08-19T06:59:12;37.67;;;17.23;;
18776;SDS011;9517;51.174;4.160;2022-08-19T07:01:43;35.33;;;18.20;;
18776;SDS011;9517;51.174;4.160;2022-08-19T07:04:12;40.90;;;17.13;;
18776;SDS011;9517;51.174;4.160;2022-08-19T07:06:40;31.37;;;16.57;;
18776;SDS011;9517;51.174;4.160;2022-08-19T07:09:10;37.17;;;17.53;;
18776;SDS011;9517;51.174;4.160;2022-08-19T07:11:39;30.27;;;15.50;;
18776;SDS011;9517;51.174;4.160;2022-08-19T07:14:12;31.27;;;16.10;;
18776;SDS011;9517;51.174;4.160;2022-08-19T07:16:40;31.80;;;15.40;;
18776;SDS011;9517;51.174;4.160;2022-08-19T07:19:07;31.90;;;16.17;;
18776;SDS011;9517;51.174;4.160;2022-08-19T07:21:34;31.67;;;15.43;;
18776;SDS011;9517;51.174;4.160;2022-08-19T07:24:02;30.33;;;16.37;;
18776;SDS011;9517;51.174;4.160;2022-08-19T07:26:31;40.47;;;15.70;;
18776;SDS011;9517;51.174;4.160;2022-08-19T07:28:59;29.33;;;16.00;;
18776;SDS011;9517;51.174;4.160;2022-08-19T07:31:28;30.83;;;16.50;;
18776;SDS011;9517;51.174;4.160;2022-08-19T07:34:00;33.40;;;16.03;;
18776;SDS011;9517;51.174;4.160;2022-08-19T07:36:28;37.10;;;16.40;;
18776;SDS011;9517;51.174;4.160;2022-08-19T07:38:57;27.50;;;14.93;;
18776;SDS011;9517;51.174;4.160;2022-08-19T07:41:26;31.63;;;14.80;;
18776;SDS011;9517;51.174;4.160;2022-08-19T07:43:56;32.77;;;15.77;;
18776;SDS011;9517;51.174;4.160;2022-08-19T07:46:28;27.13;;;15.23;;
18776;SDS011;9517;51.174;4.160;2022-08-19T07:48:56;34.83;;;15.17;;
18776;SDS011;9517;51.174;4.160;2022-08-19T07:51:23;28.30;;;15.17;;
18776;SDS011;9517;51.174;4.160;2022-08-19T07:53:51;33.03;;;16.33;;
18776;SDS011;9517;51.174;4.160;2022-08-19T07:56:18;28.37;;;13.87;;
18776;SDS011;9517;51.174;4.160;2022-08-19T07:58:47;27.67;;;14.70;;
18776;SDS011;9517;51.174;4.160;2022-08-19T08:01:16;26.60;;;15.20;;
18776;SDS011;9517;51.174;4.160;2022-08-19T08:03:47;27.63;;;14.20;;
18776;SDS011;9517;51.174;4.160;2022-08-19T08:06:32;28.27;;;13.87;;
18776;SDS011;9517;51.174;4.160;2022-08-19T08:09:20;25.63;;;14.23;;
18776;SDS011;9517;51.174;4.160;2022-08-19T08:11:50;24.27;;;13.87;;
18776;SDS011;9517;51.174;4.160;2022-08-19T08:14:20;27.60;;;14.33;;
18776;SDS011;9517;51.174;4.160;2022-08-19T08:16:49;24.00;;;13.83;;
18776;SDS011;9517;51.174;4.160;2022-08-19T08:19:19;26.13;;;14.67;;
18776;SDS011;9517;51.174;4.160;2022-08-19T08:21:49;27.50;;;15.27;;
18776;SDS011;9517;51.174;4.160;2022-08-19T08:24:17;26.63;;;14.60;;
18776;SDS011;9517;51.174;4.160;2022-08-19T08:26:45;23.07;;;14.33;;
18776;SDS011;9517;51.174;4.160;2022-08-19T08:29:12;25.80;;;15.07;;
18776;SDS011;9517;51.174;4.160;2022-08-19T08:31:41;29.20;;;14.20;;
18776;SDS011;9517;51.174;4.160;2022-08-19T08:34:10;27.47;;;14.33;;
18776;SDS011;9517;51.174;4.160;2022-08-19T08:36:40;30.43;;;14.33;;
18776;SDS011;9517;51.174;4.160;2022-08-19T08:39:10;27.37;;;14.10;;
18776;SDS011;9517;51.174;4.160;2022-08-19T08:41:40;29.37;;;14.67;;
18776;SDS011;9517;51.174;4.160;2022-08-19T08:44:16;28.03;;;14.50;;
18776;SDS011;9517;51.174;4.160;2022-08-19T08:46:47;24.17;;;13.90;;
18776;SDS011;9517;51.174;4.160;2022-08-19T08:49:20;26.43;;;14.90;;
18776;SDS011;9517;51.174;4.160;2022-08-19T08:51:59;29.17;;;14.70;;
18776;SDS011;9517;51.174;4.160;2022-08-19T08:54:32;29.90;;;15.47;;
18776;SDS011;9517;51.174;4.160;2022-08-19T08:57:03;35.37;;;16.33;;
18776;SDS011;9517;51.174;4.160;2022-08-19T08:59:34;33.03;;;15.90;;
18776;SDS011;9517;51.174;4.160;2022-08-19T09:02:05;34.50;;;16.13;;
18776;SDS011;9517;51.174;4.160;2022-08-19T09:04:33;30.87;;;15.93;;
18776;SDS011;9517;51.174;4.160;2022-08-19T09:07:06;31.93;;;15.43;;
18776;SDS011;9517;51.174;4.160;2022-08-19T09:09:45;31.53;;;15.47;;
18776;SDS011;9517;51.174;4.160;2022-08-19T09:12:15;33.00;;;15.40;;
18776;SDS011;9517;51.174;4.160;2022-08-19T09:14:52;32.93;;;15.70;;
18776;SDS011;9517;51.174;4.160;2022-08-19T09:17:22;31.67;;;15.50;;
18776;SDS011;9517;51.174;4.160;2022-08-19T09:19:53;30.23;;;15.40;;
18776;SDS011;9517;51.174;4.160;2022-08-19T09:22:24;29.87;;;14.70;;
18776;SDS011;9517;51.174;4.160;2022-08-19T09:24:51;31.63;;;15.17;;
18776;SDS011;9517;51.174;4.160;2022-08-19T09:27:19;30.53;;;15.30;;
18776;SDS011;9517;51.174;4.160;2022-08-19T09:29:49;26.23;;;13.33;;
18776;SDS011;9517;51.174;4.160;2022-08-19T09:32:16;31.60;;;14.13;;
18776;SDS011;9517;51.174;4.160;2022-08-19T09:34:43;29.53;;;14.20;;
18776;SDS011;9517;51.174;4.160;2022-08-19T09:37:10;30.30;;;14.07;;
18776;SDS011;9517;51.174;4.160;2022-08-19T09:39:39;29.97;;;14.07;;
18776;SDS011;9517;51.174;4.160;2022-08-19T09:42:07;30.83;;;13.70;;
18776;SDS011;9517;51.174;4.160;2022-08-19T09:44:37;26.83;;;13.07;;
18776;SDS011;9517;51.174;4.160;2022-08-19T09:47:04;29.93;;;13.73;;
18776;SDS011;9517;51.174;4.160;2022-08-19T09:49:32;23.97;;;14.00;;
18776;SDS011;9517;51.174;4.160;2022-08-19T09:51:59;30.57;;;14.90;;
18776;SDS011;9517;51.174;4.160;2022-08-19T09:54:27;28.00;;;14.07;;
18776;SDS011;9517;51.174;4.160;2022-08-19T09:56:57;28.97;;;14.47;;
18776;SDS011;9517;51.174;4.160;2022-08-19T09:59:26;30.63;;;13.63;;
18776;SDS011;9517;51.174;4.160;2022-08-19T10:01:54;33.23;;;14.47;;
18776;SDS011;9517;51.174;4.160;2022-08-19T10:04:24;31.97;;;14.17;;
18776;SDS011;9517;51.174;4.160;2022-08-19T10:07:12;28.07;;;14.80;;
18776;SDS011;9517;51.174;4.160;2022-08-19T10:09:40;26.77;;;14.07;;
18776;SDS011;9517;51.174;4.160;2022-08-19T10:12:08;32.80;;;13.77;;
18776;SDS011;9517;51.174;4.160;2022-08-19T10:14:36;25.50;;;13.47;;
18776;SDS011;9517;51.174;4.160;2022-08-19T10:17:04;24.80;;;13.07;;
18776;SDS011;9517;51.174;4.160;2022-08-19T10:19:31;23.67;;;11.70;;
18776;SDS011;9517;51.174;4.160;2022-08-19T10:22:02;24.63;;;13.00;;
18776;SDS011;9517;51.174;4.160;2022-08-19T10:24:30;26.90;;;12.90;;
18776;SDS011;9517;51.174;4.160;2022-08-19T10:27:01;25.50;;;12.93;;
18776;SDS011;9517;51.174;4.160;2022-08-19T10:29:32;21.67;;;12.07;;
18776;SDS011;9517;51.174;4.160;2022-08-19T10:32:00;27.87;;;13.20;;
18776;SDS011;9517;51.174;4.160;2022-08-19T10:34:30;23.57;;;12.50;;
18776;SDS011;9517;51.174;4.160;2022-08-19T10:36:58;25.00;;;12.23;;
18776;SDS011;9517;51.174;4.160;2022-08-19T10:39:26;21.67;;;12.37;;
18776;SDS011;9517;51.174;4.160;2022-08-19T10:41:55;23.80;;;11.43;;
18776;SDS011;9517;51.174;4.160;2022-08-19T10:44:22;21.90;;;11.73;;
18776;SDS011;9517;51.174;4.160;2022-08-19T10:46:51;22.17;;;11.57;;
18776;SDS011;9517;51.174;4.160;2022-08-19T10:49:18;21.00;;;10.60;;
18776;SDS011;9517;51.174;4.160;2022-08-19T10:51:45;20.40;;;11.67;;
18776;SDS011;9517;51.174;4.160;2022-08-19T10:54:33;20.07;;;10.13;;
18776;SDS011;9517;51.174;4.160;2022-08-19T10:57:18;18.17;;;9.40;;
18776;SDS011;9517;51.174;4.160;2022-08-19T10:59:45;18.23;;;9.53;;
18776;SDS011;9517;51.174;4.160;2022-08-19T11:02:16;20.00;;;9.63;;
18776;SDS011;9517;51.174;4.160;2022-08-19T11:04:43;15.90;;;9.07;;
18776;SDS011;9517;51.174;4.160;2022-08-19T11:07:10;18.00;;;8.80;;
18776;SDS011;9517;51.174;4.160;2022-08-19T11:09:38;18.73;;;8.67;;
18776;SDS011;9517;51.174;4.160;2022-08-19T11:12:07;13.63;;;7.73;;
18776;SDS011;9517;51.174;4.160;2022-08-19T11:14:34;22.87;;;8.50;;
18776;SDS011;9517;51.174;4.160;2022-08-19T11:17:02;14.73;;;8.10;;
18776;SDS011;9517;51.174;4.160;2022-08-19T11:19:32;13.95;;;7.43;;
18776;SDS011;9517;51.174;4.160;2022-08-19T11:22:00;21.08;;;7.20;;
18776;SDS011;9517;51.174;4.160;2022-08-19T11:24:28;14.60;;;6.23;;
18776;SDS011;9517;51.174;4.160;2022-08-19T11:27:00;10.90;;;5.63;;
18776;SDS011;9517;51.174;4.160;2022-08-19T11:29:30;12.77;;;6.60;;
18776;SDS011;9517;51.174;4.160;2022-08-19T11:31:59;11.55;;;6.13;;
18776;SDS011;9517;51.174;4.160;2022-08-19T11:34:29;13.25;;;5.38;;
18776;SDS011;9517;51.174;4.160;2022-08-19T11:36:58;11.30;;;4.95;;
18776;SDS011;9517;51.174;4.160;2022-08-19T11:39:26;13.25;;;5.43;;
18776;SDS011;9517;51.174;4.160;2022-08-19T11:41:55;12.00;;;5.20;;
18776;SDS011;9517;51.174;4.160;2022-08-19T11:44:23;10.98;;;5.50;;
18776;SDS011;9517;51.174;4.160;2022-08-19T11:46:51;10.98;;;4.90;;
18776;SDS011;9517;51.174;4.160;2022-08-19T11:49:19;11.05;;;4.90;;
18776;SDS011;9517;51.174;4.160;2022-08-19T11:51:48;8.50;;;4.18;;
18776;SDS011;9517;51.174;4.160;2022-08-19T11:54:16;39.92;;;6.32;;
18776;SDS011;9517;51.174;4.160;2022-08-19T11:56:43;9.60;;;5.05;;
18776;SDS011;9517;51.174;4.160;2022-08-19T11:59:12;13.60;;;5.30;;
18776;SDS011;9517;51.174;4.160;2022-08-19T12:01:39;14.65;;;4.70;;
18776;SDS011;9517;51.174;4.160;2022-08-19T12:04:07;12.60;;;4.50;;
18776;SDS011;9517;51.174;4.160;2022-08-19T12:06:36;11.43;;;4.55;;
18776;SDS011;9517;51.174;4.160;2022-08-19T12:09:08;12.23;;;4.33;;
18776;SDS011;9517;51.174;4.160;2022-08-19T12:11:37;11.48;;;4.45;;
18776;SDS011;9517;51.174;4.160;2022-08-19T12:14:05;8.73;;;4.13;;
18776;SDS011;9517;51.174;4.160;2022-08-19T12:16:33;9.83;;;5.03;;
18776;SDS011;9517;51.174;4.160;2022-08-19T12:19:00;11.23;;;4.93;;
18776;SDS011;9517;51.174;4.160;2022-08-19T12:21:30;12.67;;;5.33;;
18776;SDS011;9517;51.174;4.160;2022-08-19T12:23:59;14.43;;;5.25;;
18776;SDS011;9517;51.174;4.160;2022-08-19T12:26:29;10.30;;;4.30;;
18776;SDS011;9517;51.174;4.160;2022-08-19T12:28:57;9.47;;;4.30;;
18776;SDS011;9517;51.174;4.160;2022-08-19T12:31:25;9.57;;;3.60;;
18776;SDS011;9517;51.174;4.160;2022-08-19T12:33:53;10.03;;;3.23;;
18776;SDS011;9517;51.174;4.160;2022-08-19T12:36:20;11.57;;;3.53;;
18776;SDS011;9517;51.174;4.160;2022-08-19T12:38:48;7.83;;;3.47;;
18776;SDS011;9517;51.174;4.160;2022-08-19T12:41:16;15.40;;;4.20;;
18776;SDS011;9517;51.174;4.160;2022-08-19T12:43:45;10.45;;;3.85;;
18776;SDS011;9517;51.174;4.160;2022-08-19T12:46:13;10.75;;;3.83;;
18776;SDS011;9517;51.174;4.160;2022-08-19T12:48:40;11.15;;;3.85;;
18776;SDS011;9517;51.174;4.160;2022-08-19T12:51:08;10.23;;;3.20;;
18776;SDS011;9517;51.174;4.160;2022-08-19T12:53:37;9.60;;;3.30;;
18776;SDS011;9517;51.174;4.160;2022-08-19T12:56:04;13.55;;;3.50;;
18776;SDS011;9517;51.174;4.160;2022-08-19T12:58:31;10.18;;;3.00;;
18776;SDS011;9517;51.174;4.160;2022-08-19T13:01:01;7.05;;;2.53;;
18776;SDS011;9517;51.174;4.160;2022-08-19T13:03:33;10.10;;;2.83;;
18776;SDS011;9517;51.174;4.160;2022-08-19T13:06:00;7.78;;;2.75;;
18776;SDS011;9517;51.174;4.160;2022-08-19T13:08:27;7.10;;;2.22;;
18776;SDS011;9517;51.174;4.160;2022-08-19T13:10:54;6.75;;;2.20;;
18776;SDS011;9517;51.174;4.160;2022-08-19T13:13:21;6.72;;;2.00;;
18776;SDS011;9517;51.174;4.160;2022-08-19T13:15:51;4.47;;;1.67;;
18776;SDS011;9517;51.174;4.160;2022-08-19T13:18:19;8.05;;;2.03;;
18776;SDS011;9517;51.174;4.160;2022-08-19T13:20:46;9.38;;;1.95;;
18776;SDS011;9517;51.174;4.160;2022-08-19T13:23:13;6.70;;;2.20;;
18776;SDS011;9517;51.174;4.160;2022-08-19T13:25:40;6.45;;;2.83;;
18776;SDS011;9517;51.174;4.160;2022-08-19T13:28:08;6.22;;;2.20;;
18776;SDS011;9517;51.174;4.160;2022-08-19T13:30:34;5.63;;;1.60;;
18776;SDS011;9517;51.174;4.160;2022-08-19T13:33:21;7.65;;;1.88;;
18776;SDS011;9517;51.174;4.160;2022-08-19T13:35:51;5.72;;;2.03;;
18776;SDS011;9517;51.174;4.160;2022-08-19T13:38:23;5.10;;;2.10;;
18776;SDS011;9517;51.174;4.160;2022-08-19T13:40:51;9.82;;;2.20;;
18776;SDS011;9517;51.174;4.160;2022-08-19T13:43:20;6.60;;;2.10;;
18776;SDS011;9517;51.174;4.160;2022-08-19T13:45:49;6.13;;;2.20;;
18776;SDS011;9517;51.174;4.160;2022-08-19T13:48:18;5.20;;;2.13;;
18776;SDS011;9517;51.174;4.160;2022-08-19T13:50:47;9.95;;;2.10;;
18776;SDS011;9517;51.174;4.160;2022-08-19T13:53:15;5.60;;;1.80;;
18776;SDS011;9517;51.174;4.160;2022-08-19T13:55:42;6.18;;;1.85;;
18776;SDS011;9517;51.174;4.160;2022-08-19T13:58:10;3.65;;;1.70;;
18776;SDS011;9517;51.174;4.160;2022-08-19T14:00:40;7.43;;;1.50;;
18776;SDS011;9517;51.174;4.160;2022-08-19T14:03:08;5.75;;;1.98;;
18776;SDS011;9517;51.174;4.160;2022-08-19T14:05:37;7.85;;;2.00;;
18776;SDS011;9517;51.174;4.160;2022-08-19T14:08:04;6.38;;;1.85;;
18776;SDS011;9517;51.174;4.160;2022-08-19T14:10:31;8.17;;;2.03;;
18776;SDS011;9517;51.174;4.160;2022-08-19T14:12:59;7.20;;;2.17;;
18776;SDS011;9517;51.174;4.160;2022-08-19T14:15:30;6.40;;;1.87;;
18776;SDS011;9517;51.174;4.160;2022-08-19T14:17:58;5.00;;;1.70;;
18776;SDS011;9517;51.174;4.160;2022-08-19T14:20:25;5.03;;;1.73;;
18776;SDS011;9517;51.174;4.160;2022-08-19T14:22:54;9.40;;;3.23;;
18776;SDS011;9517;51.174;4.160;2022-08-19T14:25:22;15.73;;;5.57;;
18776;SDS011;9517;51.174;4.160;2022-08-19T14:27:50;15.83;;;5.67;;
18776;SDS011;9517;51.174;4.160;2022-08-19T14:30:18;13.57;;;7.03;;
18776;SDS011;9517;51.174;4.160;2022-08-19T14:32:46;12.67;;;6.87;;
18776;SDS011;9517;51.174;4.160;2022-08-19T14:35:14;14.37;;;7.10;;
18776;SDS011;9517;51.174;4.160;2022-08-19T14:37:43;14.20;;;6.70;;
18776;SDS011;9517;51.174;4.160;2022-08-19T14:40:13;17.87;;;8.20;;
18776;SDS011;9517;51.174;4.160;2022-08-19T14:42:41;16.53;;;7.67;;
18776;SDS011;9517;51.174;4.160;2022-08-19T14:45:10;14.63;;;5.47;;
18776;SDS011;9517;51.174;4.160;2022-08-19T14:47:38;11.13;;;3.90;;
18776;SDS011;9517;51.174;4.160;2022-08-19T14:50:06;9.83;;;3.27;;
18776;SDS011;9517;51.174;4.160;2022-08-19T14:52:35;8.93;;;3.07;;